createdAt,value
2019-01-04T00:00:58.037Z,102282.70
2019-01-04T00:02:02.327Z,102283.70
2019-01-04T00:03:06.699Z,102285.88
2019-01-04T00:04:13.135Z,102274.52
2019-01-04T00:05:17.423Z,102261.41
2019-01-04T00:06:21.698Z,102259.56
2019-01-04T00:07:26.081Z,102260.27
2019-01-04T00:08:30.382Z,102257.59
2019-01-04T00:09:34.835Z,102266.48
2019-01-04T00:10:38.934Z,102267.67
2019-01-04T00:11:43.260Z,102262.52
2019-01-04T00:12:47.423Z,102272.28
2019-01-04T00:13:51.687Z,102264.09
2019-01-04T00:14:56.158Z,102256.55
2019-01-04T00:16:00.518Z,102251.94
2019-01-04T00:17:04.804Z,102263.95
2019-01-04T00:18:08.976Z,102260.42
2019-01-04T00:19:13.374Z,102255.56
2019-01-04T00:20:17.710Z,102253.52
2019-01-04T00:21:22.056Z,102254.07
2019-01-04T00:22:26.326Z,102251.89
2019-01-04T00:23:30.670Z,102259.84
2019-01-04T00:24:34.999Z,102256.20
2019-01-04T00:25:39.269Z,102256.20
2019-01-04T00:26:43.568Z,102247.87
2019-01-04T00:27:47.862Z,102243.00
2019-01-04T00:28:52.183Z,102262.26
2019-01-04T00:29:56.623Z,102254.56
2019-01-04T00:31:00.881Z,102254.92
2019-01-04T00:32:05.188Z,102248.36
2019-01-04T00:33:09.506Z,102245.09
2019-01-04T00:34:13.722Z,102247.31
2019-01-04T00:35:18.076Z,102239.63
2019-01-04T00:36:22.349Z,102234.11
2019-01-04T00:37:26.650Z,102229.95
2019-01-04T00:38:31.100Z,102221.20
2019-01-04T00:39:35.430Z,102236.44
2019-01-04T00:40:40.167Z,102235.59
2019-01-04T00:41:44.429Z,102227.81
2019-01-04T00:42:48.831Z,102227.31
2019-01-04T00:43:53.024Z,102221.95
2019-01-04T00:44:57.313Z,102219.92
2019-01-04T00:46:01.454Z,102227.31
2019-01-04T00:47:05.635Z,102221.11
2019-01-04T00:48:16.183Z,102219.92
2019-01-04T00:49:20.498Z,102217.38
2019-01-04T00:50:24.791Z,102212.86
2019-01-04T00:51:29.174Z,102223.98
2019-01-04T00:52:33.381Z,102217.44
2019-01-04T00:53:37.769Z,102218.02
2019-01-04T00:54:42.202Z,102205.02
2019-01-04T00:55:59.513Z,102209.39
2019-01-04T00:57:11.040Z,102204.38
2019-01-04T00:59:02.522Z,102204.13
2019-01-04T01:01:21.662Z,102199.31
2019-01-04T01:04:39.465Z,102191.27
2019-01-04T01:05:54.454Z,102192.97
2019-01-04T01:07:17.355Z,102191.62
2019-01-04T01:08:50.250Z,102189.44
2019-01-04T01:10:11.850Z,102184.38
2019-01-04T01:11:28.905Z,102182.04
2019-01-04T01:12:53.946Z,102185.71
2019-01-04T01:16:18.495Z,102186.47
2019-01-04T01:19:40.446Z,102187.95
2019-01-04T01:23:04.075Z,102185.36
2019-01-04T01:24:19.856Z,102177.32
2019-01-04T01:25:35.648Z,102173.94
2019-01-04T01:26:52.647Z,102176.63
2019-01-04T01:30:29.942Z,102177.96
2019-01-04T01:31:53.936Z,102162.23
2019-01-04T01:33:14.116Z,102172.02
2019-01-04T01:35:04.550Z,102170.97
2019-01-04T01:36:28.336Z,102163.42
2019-01-04T01:39:54.783Z,102159.81
2019-01-04T01:43:12.963Z,102155.53
2019-01-04T01:44:31.768Z,102156.02
2019-01-04T01:45:50.554Z,102157.12
2019-01-04T01:47:03.986Z,102163.22
2019-01-04T01:48:15.316Z,102160.66
2019-01-04T01:49:33.076Z,102155.18
2019-01-04T01:51:09.070Z,102156.92
2019-01-04T01:52:18.096Z,102149.23
2019-01-04T01:53:22.389Z,102141.89
2019-01-04T01:54:26.731Z,102142.63
2019-01-04T01:55:31.016Z,102139.30
2019-01-04T01:56:35.227Z,102142.97
2019-01-04T01:57:39.421Z,102146.34
2019-01-04T01:58:43.777Z,102142.53
2019-01-04T01:59:48.162Z,102133.84
2019-01-04T02:00:52.552Z,102134.98
2019-01-04T02:01:56.755Z,102132.66
2019-01-04T02:03:01.172Z,102131.31
2019-01-04T02:04:05.518Z,102131.81
2019-01-04T02:05:09.924Z,102128.78
2019-01-04T02:06:14.036Z,102131.45
2019-01-04T02:07:18.339Z,102135.77
2019-01-04T02:08:22.841Z,102137.81
2019-01-04T02:09:27.261Z,102140.20
2019-01-04T02:10:31.590Z,102134.72
2019-01-04T02:11:35.922Z,102140.20
2019-01-04T02:12:40.121Z,102133.00
2019-01-04T02:13:44.358Z,102131.89
2019-01-04T02:14:48.576Z,102136.41
2019-01-04T02:15:52.986Z,102140.55
2019-01-04T02:16:57.312Z,102134.92
2019-01-04T02:18:01.472Z,102146.34
2019-01-04T02:19:05.819Z,102144.66
2019-01-04T02:20:10.059Z,102138.64
2019-01-04T02:21:14.423Z,102136.61
2019-01-04T02:22:18.687Z,102137.11
2019-01-04T02:23:22.996Z,102127.52
2019-01-04T02:24:27.242Z,102129.56
2019-01-04T02:25:31.428Z,102123.91
2019-01-04T02:26:35.918Z,102115.22
2019-01-04T02:27:40.130Z,102117.70
2019-01-04T02:28:44.323Z,102124.98
2019-01-04T02:29:48.567Z,102117.13
2019-01-04T02:30:52.871Z,102116.64
2019-01-04T02:31:56.991Z,102109.29
2019-01-04T02:33:01.318Z,102105.97
2019-01-04T02:34:05.483Z,102105.34
2019-01-04T02:35:09.699Z,102111.82
2019-01-04T02:36:13.978Z,102109.07
2019-01-04T02:37:18.453Z,102101.02
2019-01-04T02:38:22.920Z,102097.84
2019-01-04T02:39:27.241Z,102096.70
2019-01-04T02:40:31.462Z,102087.97
2019-01-04T02:41:35.719Z,102086.48
2019-01-04T02:42:40.204Z,102087.27
2019-01-04T02:43:44.360Z,102078.88
2019-01-04T02:44:48.740Z,102075.55
2019-01-04T02:45:53.083Z,102080.57
2019-01-04T02:46:57.376Z,102067.92
2019-01-04T02:48:01.763Z,102071.68
2019-01-04T02:49:06.107Z,102084.44
2019-01-04T02:50:10.303Z,102066.16
2019-01-04T02:51:14.625Z,102070.88
2019-01-04T02:52:18.909Z,102062.69
2019-01-04T02:53:23.294Z,102068.42
2019-01-04T02:54:27.651Z,102067.20
2019-01-04T02:55:32.012Z,102060.38
2019-01-04T02:56:36.267Z,102061.72
2019-01-04T02:57:40.591Z,102057.20
2019-01-04T02:58:44.822Z,102052.88
2019-01-04T02:59:49.255Z,102059.23
2019-01-04T03:00:53.742Z,102055.21
2019-01-04T03:01:58.015Z,102044.80
2019-01-04T03:03:02.348Z,102044.98
2019-01-04T03:04:06.524Z,102049.70
2019-01-04T03:05:10.944Z,102058.94
2019-01-04T03:06:15.224Z,102049.55
2019-01-04T03:07:19.449Z,102038.17
2019-01-04T03:08:23.753Z,102050.81
2019-01-04T03:09:28.178Z,102054.19
2019-01-04T03:10:32.525Z,102047.28
2019-01-04T03:11:36.885Z,102037.70
2019-01-04T03:12:41.218Z,102034.03
2019-01-04T03:13:45.425Z,102026.48
2019-01-04T03:14:49.800Z,102013.95
2019-01-04T03:15:54.029Z,102013.56
2019-01-04T03:16:58.323Z,102020.89
2019-01-04T03:18:02.639Z,102016.87
2019-01-04T03:19:06.959Z,102013.99
2019-01-04T03:20:11.341Z,102000.58
2019-01-04T03:21:15.642Z,102006.59
2019-01-04T03:22:19.967Z,102001.08
2019-01-04T03:23:24.264Z,101996.75
2019-01-04T03:24:28.605Z,102000.50
2019-01-04T03:25:32.983Z,102000.16
2019-01-04T03:26:37.354Z,102002.69
2019-01-04T03:27:41.596Z,101999.01
2019-01-04T03:28:45.937Z,101992.80
2019-01-04T03:29:50.183Z,101998.70
2019-01-04T03:30:54.508Z,101993.30
2019-01-04T03:31:58.773Z,101993.30
2019-01-04T03:33:03.071Z,101986.94
2019-01-04T03:34:07.380Z,101982.34
2019-01-04T03:35:11.696Z,101983.69
2019-01-04T03:36:16.006Z,101971.50
2019-01-04T03:37:20.263Z,101984.26
2019-01-04T03:38:24.751Z,101972.96
2019-01-04T03:39:29.086Z,101991.23
2019-01-04T03:40:33.452Z,101979.16
2019-01-04T03:41:37.759Z,101969.09
2019-01-04T03:42:42.045Z,101977.70
2019-01-04T03:43:46.345Z,101972.84
2019-01-04T03:44:50.662Z,101984.59
2019-01-04T03:45:54.918Z,101963.45
2019-01-04T03:46:59.291Z,101957.59
2019-01-04T03:48:03.355Z,101970.66
2019-01-04T03:49:07.688Z,101979.23
2019-01-04T03:50:11.806Z,101951.76
2019-01-04T03:51:16.118Z,101969.88
2019-01-04T03:52:20.270Z,101958.38
2019-01-04T03:53:24.662Z,101964.63
2019-01-04T03:54:28.903Z,101960.30
2019-01-04T03:55:33.233Z,101942.44
2019-01-04T03:56:37.473Z,101954.20
2019-01-04T03:57:41.716Z,101961.94
2019-01-04T03:58:46.059Z,101949.24
2019-01-04T03:59:50.341Z,101951.70
2019-01-04T04:00:54.678Z,101953.27
2019-01-04T04:01:58.838Z,101952.20
2019-01-04T04:03:03.075Z,101949.68
2019-01-04T04:04:07.268Z,101952.70
2019-01-04T04:05:11.580Z,101947.56
2019-01-04T04:06:15.907Z,101946.00
2019-01-04T04:07:20.232Z,101934.27
2019-01-04T04:08:24.428Z,101937.02
2019-01-04T04:09:28.593Z,101932.30
2019-01-04T04:10:32.990Z,101937.67
2019-01-04T04:11:36.905Z,101926.44
2019-01-04T04:12:40.984Z,101922.41
2019-01-04T04:13:45.296Z,101922.41
2019-01-04T04:14:49.691Z,101923.88
2019-01-04T04:15:53.959Z,101913.03
2019-01-04T04:16:58.258Z,101911.53
2019-01-04T04:18:02.539Z,101911.69
2019-01-04T04:19:06.941Z,101897.21
2019-01-04T04:20:11.167Z,101908.66
2019-01-04T04:21:15.476Z,101893.53
2019-01-04T04:22:20.929Z,101894.53
2019-01-04T04:23:25.326Z,101891.84
2019-01-04T04:24:29.495Z,101899.05
2019-01-04T04:25:33.839Z,101887.82
2019-01-04T04:26:37.918Z,101893.25
2019-01-04T04:27:42.266Z,101887.54
2019-01-04T04:28:46.657Z,101889.56
2019-01-04T04:29:50.866Z,101882.02
2019-01-04T04:30:55.072Z,101880.77
2019-01-04T04:31:59.503Z,101881.42
2019-01-04T04:33:03.731Z,101879.92
2019-01-04T04:34:08.186Z,101876.58
2019-01-04T04:35:12.520Z,101866.84
2019-01-04T04:36:16.817Z,101880.61
2019-01-04T04:37:21.075Z,101870.53
2019-01-04T04:38:25.312Z,101867.84
2019-01-04T04:39:29.755Z,101869.53
2019-01-04T04:40:34.091Z,101866.51
2019-01-04T04:41:38.334Z,101861.98
2019-01-04T04:42:42.707Z,101853.11
2019-01-04T04:43:46.949Z,101854.45
2019-01-04T04:44:51.338Z,101850.15
2019-01-04T04:45:55.726Z,101846.63
2019-01-04T04:47:00.055Z,101842.22
2019-01-04T04:48:04.424Z,101835.83
2019-01-04T04:49:08.759Z,101836.66
2019-01-04T04:50:13.087Z,101824.23
2019-01-04T04:51:17.420Z,101833.83
2019-01-04T04:52:21.820Z,101833.99
2019-01-04T04:53:26.015Z,101834.33
2019-01-04T04:54:30.337Z,101820.58
2019-01-04T04:55:34.606Z,101823.26
2019-01-04T04:56:38.858Z,101815.53
2019-01-04T04:57:43.094Z,101821.73
2019-01-04T04:58:47.396Z,101818.88
2019-01-04T04:59:51.767Z,101824.52
2019-01-04T05:00:56.105Z,101814.47
2019-01-04T05:02:00.434Z,101818.50
2019-01-04T05:03:04.708Z,101811.79
2019-01-04T05:04:09.043Z,101809.95
2019-01-04T05:05:13.426Z,101813.87
2019-01-04T05:06:17.739Z,101817.89
2019-01-04T05:07:22.084Z,101815.70
2019-01-04T05:08:26.356Z,101813.87
2019-01-04T05:09:30.697Z,101810.16
2019-01-04T05:10:34.918Z,101809.16
2019-01-04T05:11:39.123Z,101812.69
2019-01-04T05:12:43.473Z,101813.19
2019-01-04T05:13:47.780Z,101806.82
2019-01-04T05:14:52.148Z,101809.84
2019-01-04T05:15:56.476Z,101795.75
2019-01-04T05:17:00.754Z,101805.50
2019-01-04T05:18:04.930Z,101799.11
2019-01-04T05:19:09.277Z,101799.00
2019-01-04T05:20:13.431Z,101796.82
2019-01-04T05:21:17.807Z,101795.14
2019-01-04T05:22:22.068Z,101795.14
2019-01-04T05:23:26.273Z,101796.11
2019-01-04T05:24:30.514Z,101796.98
2019-01-04T05:25:34.779Z,101797.16
2019-01-04T05:26:39.129Z,101797.84
2019-01-04T05:27:43.288Z,101788.67
2019-01-04T05:28:47.535Z,101789.17
2019-01-04T05:29:51.977Z,101786.16
2019-01-04T05:30:56.223Z,101787.50
2019-01-04T05:32:00.419Z,101787.28
2019-01-04T05:33:04.769Z,101783.42
2019-01-04T05:34:09.075Z,101778.39
2019-01-04T05:35:13.380Z,101786.11
2019-01-04T05:36:20.815Z,101766.59
2019-01-04T05:37:25.057Z,101766.30
2019-01-04T05:38:29.384Z,101771.67
2019-01-04T05:39:33.563Z,101766.37
2019-01-04T05:40:37.877Z,101763.84
2019-01-04T05:41:42.190Z,101769.72
2019-01-04T05:42:46.509Z,101765.20
2019-01-04T05:43:50.796Z,101765.20
2019-01-04T05:44:55.142Z,101769.39
2019-01-04T05:45:59.385Z,101759.50
2019-01-04T05:47:03.763Z,101763.02
2019-01-04T05:48:08.056Z,101762.36
2019-01-04T05:49:12.326Z,101753.30
2019-01-04T05:50:16.660Z,101762.41
2019-01-04T05:51:20.957Z,101762.41
2019-01-04T05:52:25.328Z,101766.11
2019-01-04T05:53:29.716Z,101760.56
2019-01-04T05:54:33.979Z,101767.45
2019-01-04T05:55:38.294Z,101764.81
2019-01-04T05:56:42.492Z,101765.15
2019-01-04T05:57:47.008Z,101765.44
2019-01-04T05:58:51.212Z,101761.08
2019-01-04T05:59:55.451Z,101764.60
2019-01-04T06:00:59.748Z,101765.83
2019-01-04T06:02:04.045Z,101767.16
2019-01-04T06:03:08.419Z,101765.15
2019-01-04T06:04:12.766Z,101765.81
2019-01-04T06:05:16.935Z,101767.83
2019-01-04T06:06:21.294Z,101757.26
2019-01-04T06:07:25.373Z,101765.83
2019-01-04T06:08:29.753Z,101762.13
2019-01-04T06:09:33.962Z,101756.76
2019-01-04T06:10:38.395Z,101755.92
2019-01-04T06:11:42.730Z,101762.30
2019-01-04T06:12:46.914Z,101755.09
2019-01-04T06:13:51.262Z,101751.40
2019-01-04T06:14:55.680Z,101753.06
2019-01-04T06:16:00.019Z,101748.54
2019-01-04T06:17:04.368Z,101746.02
2019-01-04T06:18:08.479Z,101749.50
2019-01-04T06:19:12.948Z,101746.81
2019-01-04T06:20:17.287Z,101742.63
2019-01-04T06:21:21.486Z,101745.80
2019-01-04T06:22:25.768Z,101744.97
2019-01-04T06:23:30.110Z,101746.65
2019-01-04T06:24:34.350Z,101752.02
2019-01-04T06:25:38.724Z,101749.70
2019-01-04T06:26:42.958Z,101749.70
2019-01-04T06:27:47.237Z,101747.49
2019-01-04T06:28:51.418Z,101745.68
2019-01-04T06:29:55.810Z,101748.20
2019-01-04T06:31:00.101Z,101738.48
2019-01-04T06:32:04.280Z,101739.66
2019-01-04T06:33:08.481Z,101750.56
2019-01-04T06:34:12.775Z,101744.69
2019-01-04T06:35:17.092Z,101743.69
2019-01-04T06:36:21.494Z,101740.16
2019-01-04T06:37:25.783Z,101742.84
2019-01-04T06:38:30.125Z,101740.00
2019-01-04T06:39:34.492Z,101742.84
2019-01-04T06:40:38.853Z,101741.66
2019-01-04T06:41:43.007Z,101744.69
2019-01-04T06:42:47.453Z,101743.34
2019-01-04T06:43:51.726Z,101729.08
2019-01-04T06:44:56.105Z,101731.27
2019-01-04T06:46:00.415Z,101738.81
2019-01-04T06:47:11.497Z,101734.95
2019-01-04T06:48:15.854Z,101736.30
2019-01-04T06:49:20.078Z,101737.64
2019-01-04T06:50:24.471Z,101734.11
2019-01-04T06:51:28.833Z,101735.30
2019-01-04T06:52:33.082Z,101728.91
2019-01-04T06:53:37.383Z,101737.31
2019-01-04T06:54:52.457Z,101734.29
2019-01-04T06:55:59.412Z,101732.95
2019-01-04T06:57:03.740Z,101727.08
2019-01-04T06:58:08.011Z,101724.22
2019-01-04T06:59:12.485Z,101724.89
2019-01-04T07:00:16.818Z,101725.90
2019-01-04T07:01:21.199Z,101722.03
2019-01-04T07:02:25.367Z,101711.96
2019-01-04T07:03:29.897Z,101721.87
2019-01-04T07:04:34.108Z,101717.84
2019-01-04T07:05:38.417Z,101717.50
2019-01-04T07:06:42.649Z,101712.47
2019-01-04T07:07:47.019Z,101719.85
2019-01-04T07:08:51.230Z,101714.77
2019-01-04T07:09:55.547Z,101716.33
2019-01-04T07:10:59.706Z,101721.19
2019-01-04T07:12:04.212Z,101715.98
2019-01-04T07:13:08.603Z,101717.83
2019-01-04T07:14:12.936Z,101720.52
2019-01-04T07:15:17.316Z,101714.14
2019-01-04T07:16:21.497Z,101704.53
2019-01-04T07:17:25.837Z,101717.13
2019-01-04T07:18:30.112Z,101717.97
2019-01-04T07:19:34.420Z,101728.23
2019-01-04T07:20:38.703Z,101717.13
2019-01-04T07:21:43.041Z,101717.79
2019-01-04T07:22:47.423Z,101714.10
2019-01-04T07:23:51.745Z,101715.28
2019-01-04T07:24:56.174Z,101718.13
2019-01-04T07:26:00.461Z,101714.77
2019-01-04T07:27:04.688Z,101715.78
2019-01-04T07:28:09.015Z,101724.55
2019-01-04T07:29:13.304Z,101722.86
2019-01-04T07:30:17.480Z,101716.16
2019-01-04T07:31:21.827Z,101713.80
2019-01-04T07:32:26.093Z,101711.63
2019-01-04T07:33:30.482Z,101714.44
2019-01-04T07:34:34.734Z,101712.08
2019-01-04T07:35:39.017Z,101711.75
2019-01-04T07:36:43.205Z,101710.41
2019-01-04T07:37:47.725Z,101713.94
2019-01-04T07:38:52.105Z,101715.44
2019-01-04T07:39:56.497Z,101713.77
2019-01-04T07:41:02.185Z,101711.08
2019-01-04T07:42:05.024Z,101710.58
2019-01-04T07:43:09.331Z,101707.55
2019-01-04T07:44:13.502Z,101710.74
2019-01-04T07:45:17.928Z,101707.22
2019-01-04T07:46:22.092Z,101712.92
2019-01-04T07:47:26.193Z,101719.80
2019-01-04T07:48:30.449Z,101717.45
2019-01-04T07:49:34.679Z,101714.42
2019-01-04T07:50:39.035Z,101718.95
2019-01-04T07:51:43.385Z,101707.67
2019-01-04T07:52:47.663Z,101719.97
2019-01-04T07:53:51.968Z,101724.84
2019-01-04T07:54:56.313Z,101721.14
2019-01-04T07:56:00.664Z,101721.31
2019-01-04T07:57:04.789Z,101724.84
2019-01-04T07:58:09.111Z,101722.20
2019-01-04T07:59:13.306Z,101722.88
2019-01-04T08:00:18.040Z,101713.81
2019-01-04T08:01:22.227Z,101710.47
2019-01-04T08:02:35.747Z,101719.86
2019-01-04T08:03:40.064Z,101720.56
2019-01-04T08:04:44.352Z,101713.02
2019-01-04T08:05:48.784Z,101723.59
2019-01-04T08:06:52.979Z,101713.15
2019-01-04T08:07:57.249Z,101727.12
2019-01-04T08:09:01.505Z,101725.61
2019-01-04T08:10:06.223Z,101730.31
2019-01-04T08:11:10.794Z,101728.30
2019-01-04T08:12:15.175Z,101727.47
2019-01-04T08:13:19.456Z,101720.08
2019-01-04T08:14:23.615Z,101728.47
2019-01-04T08:15:27.939Z,101727.83
2019-01-04T08:16:32.596Z,101725.15
2019-01-04T08:17:36.742Z,101730.15
2019-01-04T08:18:41.087Z,101726.96
2019-01-04T08:19:45.378Z,101729.98
2019-01-04T08:20:49.808Z,101717.56
2019-01-04T08:21:54.259Z,101728.67
2019-01-04T08:22:58.700Z,101714.87
2019-01-04T08:24:02.900Z,101713.74
2019-01-04T08:25:08.201Z,101715.76
2019-01-04T08:26:12.521Z,101713.75
2019-01-04T08:27:16.907Z,101716.98
2019-01-04T08:28:21.252Z,101710.94
2019-01-04T08:29:25.599Z,101711.27
2019-01-04T08:30:29.937Z,101712.78
2019-01-04T08:31:34.116Z,101714.33
2019-01-04T08:32:38.482Z,101712.83
2019-01-04T08:33:42.836Z,101712.99
2019-01-04T08:34:47.157Z,101716.36
2019-01-04T08:35:51.582Z,101714.00
2019-01-04T08:36:55.995Z,101711.48
2019-01-04T08:38:00.083Z,101710.48
2019-01-04T08:39:04.588Z,101701.95
2019-01-04T08:40:10.936Z,101707.66
2019-01-04T08:41:15.322Z,101706.66
2019-01-04T08:42:19.523Z,101702.66
2019-01-04T08:43:23.950Z,101707.70
2019-01-04T08:44:28.161Z,101714.58
2019-01-04T08:45:32.351Z,101711.05
2019-01-04T08:46:36.650Z,101716.13
2019-01-04T08:47:41.032Z,101714.45
2019-01-04T08:48:45.435Z,101718.14
2019-01-04T08:49:49.743Z,101710.41
2019-01-04T08:50:53.918Z,101707.09
2019-01-04T08:51:58.224Z,101713.77
2019-01-04T08:53:02.575Z,101709.74
2019-01-04T08:54:08.665Z,101712.13
2019-01-04T08:55:22.992Z,101711.78
2019-01-04T08:56:28.719Z,101701.71
2019-01-04T08:57:33.035Z,101713.66
2019-01-04T08:58:37.310Z,101710.97
2019-01-04T08:59:41.474Z,101707.95
2019-01-04T09:00:45.801Z,101698.23
2019-01-04T09:01:50.093Z,101692.69
2019-01-04T09:02:54.424Z,101692.69
2019-01-04T09:03:58.673Z,101684.80
2019-01-04T09:05:03.032Z,101679.92
2019-01-04T09:06:07.445Z,101686.14
2019-01-04T09:07:11.906Z,101687.00
2019-01-04T09:08:16.162Z,101691.34
2019-01-04T09:09:20.527Z,101685.97
2019-01-04T09:10:24.891Z,101685.13
2019-01-04T09:11:29.082Z,101674.05
2019-01-04T09:12:33.471Z,101689.35
2019-01-04T09:13:37.844Z,101682.97
2019-01-04T09:14:42.159Z,101684.31
2019-01-04T09:15:46.435Z,101687.16
2019-01-04T09:16:50.724Z,101688.48
2019-01-04T09:17:55.112Z,101689.35
2019-01-04T09:18:59.470Z,101677.56
2019-01-04T09:20:03.630Z,101687.84
2019-01-04T09:21:07.844Z,101681.95
2019-01-04T09:22:12.278Z,101681.11
2019-01-04T09:23:16.500Z,101675.74
2019-01-04T09:24:20.778Z,101678.09
2019-01-04T09:25:25.032Z,101683.63
2019-01-04T09:26:29.300Z,101677.25
2019-01-04T09:27:33.512Z,101674.89
2019-01-04T09:28:37.902Z,101667.51
2019-01-04T09:29:42.163Z,101664.81
2019-01-04T09:30:46.472Z,101671.86
2019-01-04T09:31:50.878Z,101673.20
2019-01-04T09:32:55.087Z,101673.55
2019-01-04T09:33:59.432Z,101669.19
2019-01-04T09:35:03.878Z,101664.48
2019-01-04T09:36:08.220Z,101667.86
2019-01-04T09:37:12.476Z,101665.53
2019-01-04T09:38:16.788Z,101669.39
2019-01-04T09:39:21.088Z,101659.28
2019-01-04T09:40:25.423Z,101660.98
2019-01-04T09:41:33.260Z,101651.88
2019-01-04T09:42:37.519Z,101653.05
2019-01-04T09:43:41.792Z,101644.67
2019-01-04T09:44:46.707Z,101646.69
2019-01-04T09:45:51.051Z,101632.22
2019-01-04T09:46:55.279Z,101634.59
2019-01-04T09:47:59.548Z,101632.88
2019-01-04T09:49:03.779Z,101630.22
2019-01-04T09:50:09.026Z,101639.28
2019-01-04T09:51:13.323Z,101635.09
2019-01-04T09:52:17.531Z,101629.86
2019-01-04T09:53:21.823Z,101624.81
2019-01-04T09:54:26.096Z,101628.54
2019-01-04T09:55:30.437Z,101625.83
2019-01-04T09:56:34.657Z,101619.46
2019-01-04T09:57:38.973Z,101618.80
2019-01-04T09:58:43.377Z,101622.30
2019-01-04T09:59:47.763Z,101615.92
2019-01-04T10:00:51.732Z,101616.93
2019-01-04T10:01:55.723Z,101623.50
2019-01-04T10:02:59.669Z,101619.62
2019-01-04T10:04:03.656Z,101625.84
2019-01-04T10:05:08.229Z,101618.94
2019-01-04T10:06:12.512Z,101618.45
2019-01-04T10:07:17.031Z,101616.75
2019-01-04T10:08:21.316Z,101614.39
2019-01-04T10:09:25.539Z,101610.38
2019-01-04T10:10:29.812Z,101604.97
2019-01-04T10:11:33.773Z,101599.59
2019-01-04T10:12:38.332Z,101611.36
2019-01-04T10:13:42.074Z,101608.84
2019-01-04T10:14:47.921Z,101610.00
2019-01-04T10:15:51.956Z,101605.27
2019-01-04T10:16:56.324Z,101611.66
2019-01-04T10:18:00.662Z,101599.19
2019-01-04T10:19:05.047Z,101605.77
2019-01-04T10:20:09.465Z,101604.59
2019-01-04T10:21:13.458Z,101599.86
2019-01-04T10:22:17.487Z,101606.78
2019-01-04T10:23:21.514Z,101603.58
2019-01-04T10:24:25.528Z,101594.12
2019-01-04T10:25:29.523Z,101595.83
2019-01-04T10:26:33.493Z,101590.30
2019-01-04T10:27:37.430Z,101590.80
2019-01-04T10:28:41.398Z,101586.77
2019-01-04T10:29:45.631Z,101594.99
2019-01-04T10:30:49.633Z,101589.09
2019-01-04T10:31:53.701Z,101596.34
2019-01-04T10:32:57.731Z,101597.00
2019-01-04T10:34:01.684Z,101602.23
2019-01-04T10:35:10.430Z,101593.84
2019-01-04T10:36:10.301Z,101598.53
2019-01-04T10:37:14.552Z,101600.75
2019-01-04T10:38:18.981Z,101598.72
2019-01-04T10:39:23.226Z,101597.88
2019-01-04T10:40:27.552Z,101594.19
2019-01-04T10:41:31.896Z,101587.13
2019-01-04T10:42:36.268Z,101597.23
2019-01-04T10:43:40.634Z,101602.45
2019-01-04T10:44:44.933Z,101595.70
2019-01-04T10:45:49.351Z,101595.19
2019-01-04T10:46:53.581Z,101593.16
2019-01-04T10:47:57.847Z,101587.27
2019-01-04T10:49:02.158Z,101590.95
2019-01-04T10:50:06.362Z,101590.80
2019-01-04T10:51:10.799Z,101586.73
2019-01-04T10:52:14.988Z,101587.73
2019-01-04T10:53:19.692Z,101595.80
2019-01-04T10:54:23.983Z,101584.35
2019-01-04T10:55:28.311Z,101587.73
2019-01-04T10:56:32.692Z,101569.56
2019-01-04T10:57:37.022Z,101578.67
2019-01-04T10:58:41.383Z,101573.28
2019-01-04T10:59:45.843Z,101575.16
2019-01-04T11:00:50.464Z,101570.78
2019-01-04T11:01:54.905Z,101563.58
2019-01-04T11:02:59.331Z,101557.69
2019-01-04T11:04:03.670Z,101552.66
2019-01-04T11:05:08.087Z,101556.88
2019-01-04T11:06:12.576Z,101565.60
2019-01-04T11:07:17.268Z,101566.78
2019-01-04T11:08:21.940Z,101559.22
2019-01-04T11:09:26.191Z,101558.38
2019-01-04T11:10:30.492Z,101549.17
2019-01-04T11:11:35.491Z,101542.25
2019-01-04T11:12:40.334Z,101536.77
2019-01-04T11:13:44.655Z,101539.09
2019-01-04T11:14:49.030Z,101540.92
2019-01-04T11:15:53.285Z,101543.80
2019-01-04T11:16:58.368Z,101544.97
2019-01-04T11:18:03.305Z,101548.83
2019-01-04T11:19:06.865Z,101539.74
2019-01-04T11:20:20.780Z,101533.02
2019-01-04T11:21:25.163Z,101520.23
2019-01-04T11:22:40.270Z,101517.52
2019-01-04T11:24:00.958Z,101515.13
2019-01-04T11:25:17.738Z,101510.70
2019-01-04T11:26:29.626Z,101497.76
2019-01-04T11:27:45.355Z,101492.84
2019-01-04T11:29:35.971Z,101498.19
2019-01-04T11:30:48.451Z,101492.07
2019-01-04T11:32:08.655Z,101482.46
2019-01-04T11:33:20.720Z,101476.80
2019-01-04T11:34:39.484Z,101474.28
2019-01-04T11:37:58.067Z,101472.10
2019-01-04T11:41:20.620Z,101463.19
2019-01-04T11:43:33.231Z,101463.09
2019-01-04T11:44:56.175Z,101443.67
2019-01-04T11:46:12.609Z,101455.56
2019-01-04T11:47:35.043Z,101446.55
2019-01-04T11:48:50.033Z,101448.91
2019-01-04T11:50:20.994Z,101450.25
2019-01-04T11:51:34.282Z,101444.87
2019-01-04T11:52:43.910Z,101440.80
2019-01-04T11:53:48.329Z,101437.13
2019-01-04T11:54:52.517Z,101430.72
2019-01-04T11:55:56.827Z,101433.05
2019-01-04T11:57:00.912Z,101430.36
2019-01-04T11:58:05.152Z,101411.20
2019-01-04T11:59:09.487Z,101412.50
2019-01-04T12:00:13.640Z,101414.17
2019-01-04T12:01:17.943Z,101410.78
2019-01-04T12:02:26.301Z,101408.09
2019-01-04T12:03:26.676Z,101408.38
2019-01-04T12:04:30.980Z,101409.89
2019-01-04T12:05:35.397Z,101409.07
2019-01-04T12:06:39.776Z,101405.72
2019-01-04T12:07:44.266Z,101406.88
2019-01-04T12:08:48.535Z,101397.32
2019-01-04T12:09:53.001Z,101399.00
2019-01-04T12:10:57.374Z,101401.69
2019-01-04T12:12:01.669Z,101401.37
2019-01-04T12:13:06.022Z,101409.81
2019-01-04T12:14:10.477Z,101406.32
2019-01-04T12:15:15.002Z,101409.16
2019-01-04T12:16:19.463Z,101395.89
2019-01-04T12:17:23.910Z,101402.80
2019-01-04T12:18:28.014Z,101408.17
2019-01-04T12:19:32.217Z,101397.92
2019-01-04T12:20:45.289Z,101411.05
2019-01-04T12:21:43.751Z,101402.14
2019-01-04T12:22:48.149Z,101398.44
2019-01-04T12:23:52.547Z,101400.28
2019-01-04T12:24:56.790Z,101398.43
2019-01-04T12:26:01.233Z,101398.43
2019-01-04T12:27:05.548Z,101402.09
2019-01-04T12:28:09.866Z,101396.72
2019-01-04T12:29:14.191Z,101401.62
2019-01-04T12:30:18.506Z,101391.19
2019-01-04T12:31:23.042Z,101391.84
2019-01-04T12:32:27.577Z,101390.36
2019-01-04T12:33:32.133Z,101393.05
2019-01-04T12:34:36.506Z,101381.59
2019-01-04T12:35:40.922Z,101383.59
2019-01-04T12:36:45.344Z,101379.87
2019-01-04T12:37:49.613Z,101375.66
2019-01-04T12:38:54.062Z,101379.18
2019-01-04T12:39:58.501Z,101378.72
2019-01-04T12:41:02.996Z,101372.83
2019-01-04T12:42:07.406Z,101379.92
2019-01-04T12:43:11.923Z,101374.25
2019-01-04T12:44:15.977Z,101367.48
2019-01-04T12:45:20.723Z,101369.84
2019-01-04T12:46:25.068Z,101369.48
2019-01-04T12:47:29.569Z,101373.19
2019-01-04T12:48:33.999Z,101367.44
2019-01-04T12:49:39.142Z,101362.56